createdAt,value
2019-02-10T00:00:06.641Z,3.77
2019-02-10T00:02:38.499Z,2.90
2019-02-10T00:05:08.741Z,3.37
2019-02-10T00:07:39.008Z,4.13
2019-02-10T00:10:09.240Z,3.63
2019-02-10T00:12:39.503Z,3.30
2019-02-10T00:15:09.744Z,2.97
2019-02-10T00:17:40.472Z,3.20
2019-02-10T00:20:10.708Z,3.97
2019-02-10T00:22:40.972Z,3.10
2019-02-10T00:25:11.491Z,2.13
2019-02-10T00:27:41.827Z,2.57
2019-02-10T00:30:12.059Z,2.53
2019-02-10T00:32:43.331Z,2.47
2019-02-10T00:35:13.568Z,3.10
2019-02-10T00:37:43.829Z,2.83
2019-02-10T00:40:14.059Z,3.03
2019-02-10T00:42:44.324Z,2.77
2019-02-10T00:45:14.555Z,2.40
2019-02-10T00:47:44.816Z,3.07
2019-02-10T00:50:15.057Z,2.87
2019-02-10T00:52:45.324Z,2.80
2019-02-10T00:55:15.553Z,2.70
2019-02-10T00:57:45.812Z,2.50
2019-02-10T01:00:17.721Z,3.33
2019-02-10T01:02:49.387Z,2.87
2019-02-10T01:05:19.689Z,2.80
2019-02-10T01:07:49.944Z,3.07
2019-02-10T01:10:21.054Z,3.13
2019-02-10T01:12:51.852Z,2.93
2019-02-10T01:15:22.090Z,2.37
2019-02-10T01:17:52.339Z,3.50
2019-02-10T01:20:22.575Z,2.83
2019-02-10T01:22:52.888Z,3.13
2019-02-10T01:25:23.075Z,3.07
2019-02-10T01:27:53.325Z,3.30
2019-02-10T01:30:23.567Z,3.10
2019-02-10T01:32:53.827Z,2.63
2019-02-10T01:35:24.070Z,3.20
2019-02-10T01:37:54.322Z,6.70
2019-02-10T01:40:24.562Z,6.10
2019-02-10T01:42:54.818Z,3.30
2019-02-10T01:45:25.051Z,3.23
2019-02-10T01:47:55.304Z,3.67
2019-02-10T01:50:25.541Z,4.57
2019-02-10T01:52:55.801Z,4.70
2019-02-10T01:55:26.062Z,3.17
2019-02-10T01:57:56.296Z,3.53
2019-02-10T02:00:26.531Z,3.13
2019-02-10T02:02:56.790Z,3.07
2019-02-10T02:05:27.029Z,2.50
2019-02-10T02:07:57.293Z,2.27
2019-02-10T02:10:27.532Z,2.67
2019-02-10T02:12:57.794Z,2.33
2019-02-10T02:15:28.033Z,3.77
2019-02-10T02:17:58.284Z,2.03
2019-02-10T02:20:28.517Z,2.70
2019-02-10T02:22:58.761Z,2.63
2019-02-10T02:25:29.010Z,2.30
2019-02-10T02:27:59.238Z,2.50
2019-02-10T02:30:29.503Z,2.53
2019-02-10T02:33:00.756Z,5.23
2019-02-10T02:35:31.000Z,3.20
2019-02-10T02:38:01.253Z,2.77
2019-02-10T02:40:31.482Z,2.00
2019-02-10T02:43:01.713Z,2.47
2019-02-10T02:45:31.957Z,2.87
2019-02-10T02:48:02.284Z,3.00
2019-02-10T02:50:33.657Z,2.50
2019-02-10T02:53:03.884Z,2.40
2019-02-10T02:55:34.122Z,3.87
2019-02-10T02:58:04.359Z,2.90
2019-02-10T03:00:34.592Z,2.73
2019-02-10T03:03:04.829Z,2.93
2019-02-10T03:05:35.548Z,3.00
2019-02-10T03:08:05.785Z,3.60
2019-02-10T03:10:36.030Z,3.50
2019-02-10T03:13:06.273Z,2.73
2019-02-10T03:15:36.510Z,2.43
2019-02-10T03:18:06.747Z,3.13
2019-02-10T03:20:36.978Z,2.83
2019-02-10T03:23:07.212Z,3.00
2019-02-10T03:25:37.632Z,2.97
2019-02-10T03:28:07.863Z,3.40
2019-02-10T03:30:38.098Z,3.00
2019-02-10T03:33:09.166Z,3.40
2019-02-10T03:35:39.404Z,2.33
2019-02-10T03:38:09.656Z,3.23
2019-02-10T03:40:39.890Z,3.80
2019-02-10T03:43:10.126Z,3.40
2019-02-10T03:45:40.372Z,3.27
2019-02-10T03:48:10.610Z,3.13
2019-02-10T03:50:40.857Z,3.10
2019-02-10T03:53:11.109Z,2.50
2019-02-10T03:55:41.345Z,4.13
2019-02-10T03:58:11.582Z,3.37
2019-02-10T04:00:41.834Z,4.47
2019-02-10T04:03:12.065Z,3.23
2019-02-10T04:05:42.309Z,3.53
2019-02-10T04:08:12.542Z,6.43
2019-02-10T04:10:42.803Z,4.53
2019-02-10T04:13:13.071Z,3.60
2019-02-10T04:15:43.299Z,3.50
2019-02-10T04:18:13.531Z,3.87
2019-02-10T04:20:43.795Z,3.43
2019-02-10T04:23:14.033Z,4.30
2019-02-10T04:25:44.299Z,4.80
2019-02-10T04:28:14.528Z,4.17
2019-02-10T04:30:44.789Z,4.27
2019-02-10T04:33:16.037Z,3.83
2019-02-10T04:35:46.566Z,3.53
2019-02-10T04:38:16.812Z,3.63
2019-02-10T04:40:47.066Z,3.23
2019-02-10T04:43:17.303Z,3.33
2019-02-10T04:45:47.560Z,3.30
2019-02-10T04:48:17.797Z,2.93
2019-02-10T04:50:48.047Z,2.90
2019-02-10T04:53:18.290Z,2.57
2019-02-10T04:56:08.147Z,2.57
2019-02-10T04:58:38.374Z,2.93
2019-02-10T05:01:08.629Z,3.33
2019-02-10T05:03:38.876Z,3.77
2019-02-10T05:06:09.135Z,3.27
2019-02-10T05:08:39.370Z,3.57
2019-02-10T05:11:09.631Z,3.00
2019-02-10T05:13:39.868Z,3.03
2019-02-10T05:16:10.127Z,3.07
2019-02-10T05:18:40.642Z,3.90
2019-02-10T05:21:10.902Z,3.00
2019-02-10T05:23:41.144Z,3.30
2019-02-10T05:26:11.404Z,3.33
2019-02-10T05:28:41.754Z,3.57
2019-02-10T05:31:13.613Z,2.53
2019-02-10T05:33:44.110Z,3.53
2019-02-10T05:36:14.372Z,3.13
2019-02-10T05:38:44.610Z,3.30
2019-02-10T05:41:14.877Z,4.00
2019-02-10T05:43:45.121Z,4.17
2019-02-10T05:46:15.376Z,5.80
2019-02-10T05:48:45.615Z,5.50
2019-02-10T05:51:16.638Z,5.20
2019-02-10T05:53:47.438Z,5.67
2019-02-10T05:56:17.964Z,7.30
2019-02-10T05:58:48.208Z,15.10
2019-02-10T06:01:54.955Z,12.13
2019-02-10T06:04:25.247Z,7.70
2019-02-10T06:06:58.944Z,6.37
2019-02-10T06:09:29.191Z,6.07
2019-02-10T06:11:59.454Z,5.10
2019-02-10T06:14:29.706Z,5.20
2019-02-10T06:16:59.983Z,6.23
2019-02-10T06:19:30.226Z,3.90
2019-02-10T06:22:00.492Z,4.13
2019-02-10T06:24:30.778Z,4.63
2019-02-10T06:27:01.002Z,10.23
2019-02-10T06:29:31.244Z,6.70
2019-02-10T06:32:01.504Z,6.90
2019-02-10T06:34:32.766Z,7.70
2019-02-10T06:37:03.031Z,22.63
2019-02-10T06:39:33.286Z,16.10
2019-02-10T06:42:03.544Z,15.50
2019-02-10T06:44:33.789Z,13.60
2019-02-10T06:47:04.058Z,10.10
2019-02-10T06:49:34.306Z,8.70
2019-02-10T06:52:04.571Z,5.60
2019-02-10T06:54:34.813Z,6.70
2019-02-10T06:57:05.094Z,5.40
2019-02-10T06:59:37.889Z,5.50
2019-02-10T07:02:12.729Z,4.57
2019-02-10T07:04:44.032Z,4.30
2019-02-10T07:07:14.271Z,5.97
2019-02-10T07:09:45.714Z,5.57
2019-02-10T07:12:47.392Z,6.23
2019-02-10T07:15:54.077Z,5.07
2019-02-10T07:19:03.211Z,6.00
2019-02-10T07:21:34.592Z,5.97
2019-02-10T07:24:24.469Z,6.50
2019-02-10T07:26:56.762Z,7.83
2019-02-10T07:29:30.258Z,7.90
2019-02-10T07:32:01.242Z,7.87
2019-02-10T07:34:48.094Z,5.77
2019-02-10T07:37:26.382Z,5.40
2019-02-10T07:40:24.012Z,4.17
2019-02-10T07:43:03.450Z,4.70
2019-02-10T07:45:54.485Z,3.10
2019-02-10T07:48:48.608Z,2.93
2019-02-10T07:51:34.069Z,3.17
2019-02-10T07:54:18.870Z,3.12
2019-02-10T07:57:03.341Z,3.37
2019-02-10T07:59:45.920Z,3.05
2019-02-10T08:02:22.002Z,4.15
2019-02-10T08:05:11.926Z,3.60
2019-02-10T08:07:48.108Z,3.90
2019-02-10T08:10:33.581Z,3.92
2019-02-10T08:13:23.491Z,3.37
2019-02-10T08:16:16.323Z,3.87
2019-02-10T08:19:02.040Z,3.85
2019-02-10T08:21:43.625Z,3.55
2019-02-10T08:24:38.944Z,3.62
2019-02-10T08:27:14.458Z,2.72
2019-02-10T08:29:53.748Z,3.65
2019-02-10T08:32:27.255Z,4.35
2019-02-10T08:35:24.447Z,3.35
2019-02-10T08:38:09.636Z,7.08
2019-02-10T08:41:00.917Z,5.97
2019-02-10T08:43:51.113Z,3.85
2019-02-10T08:46:36.794Z,4.67
2019-02-10T08:49:29.850Z,4.90
2019-02-10T08:52:05.925Z,5.55
2019-02-10T08:54:36.172Z,6.83
2019-02-10T08:57:06.426Z,6.95
2019-02-10T08:59:37.748Z,6.45
2019-02-10T09:02:07.991Z,5.15
2019-02-10T09:04:38.236Z,4.17
2019-02-10T09:07:08.473Z,4.22
2019-02-10T09:09:38.724Z,3.40
2019-02-10T09:12:08.971Z,4.60
2019-02-10T09:14:39.211Z,7.17
2019-02-10T09:17:09.451Z,6.87
2019-02-10T09:19:39.686Z,4.90
2019-02-10T09:22:09.999Z,4.40
2019-02-10T09:24:40.241Z,4.28
2019-02-10T09:27:12.078Z,5.08
2019-02-10T09:29:42.324Z,16.90
2019-02-10T09:32:12.580Z,15.58
2019-02-10T09:34:47.547Z,7.30
2019-02-10T09:37:18.425Z,33.73
2019-02-10T09:39:48.679Z,14.15
2019-02-10T09:42:18.926Z,10.43
2019-02-10T09:44:49.186Z,5.65
2019-02-10T09:47:19.438Z,6.53
2019-02-10T09:49:49.688Z,5.80
2019-02-10T09:52:19.937Z,7.40
2019-02-10T09:54:50.556Z,8.28
2019-02-10T09:57:20.799Z,7.28
2019-02-10T09:59:56.172Z,7.20
2019-02-10T10:02:29.041Z,9.90
2019-02-10T10:05:07.743Z,10.53
2019-02-10T10:07:42.149Z,10.43
2019-02-10T10:10:14.181Z,5.83
2019-02-10T10:12:59.955Z,5.92
2019-02-10T10:15:35.960Z,6.10
2019-02-10T10:18:07.674Z,7.28
2019-02-10T10:20:50.476Z,6.53
2019-02-10T10:23:22.162Z,6.72
2019-02-10T10:25:53.908Z,5.90
2019-02-10T10:28:24.164Z,5.37
2019-02-10T10:30:54.413Z,7.05
2019-02-10T10:33:24.666Z,5.62
2019-02-10T10:35:56.537Z,5.67
2019-02-10T10:38:26.797Z,5.72
2019-02-10T10:40:57.062Z,4.22
2019-02-10T10:43:27.313Z,5.55
2019-02-10T10:45:57.607Z,5.28
2019-02-10T10:48:32.307Z,7.75
2019-02-10T10:51:04.585Z,5.30
2019-02-10T10:53:40.141Z,6.25
2019-02-10T10:56:14.371Z,6.70
2019-02-10T10:58:46.850Z,5.53
2019-02-10T11:01:25.105Z,6.47
2019-02-10T11:03:52.137Z,7.17
2019-02-10T11:06:22.434Z,9.30
2019-02-10T11:08:53.933Z,29.20
2019-02-10T11:11:24.190Z,16.00
2019-02-10T11:13:55.685Z,16.95
2019-02-10T11:16:26.046Z,22.22
2019-02-10T11:18:56.329Z,18.17
2019-02-10T11:21:32.443Z,15.53
2019-02-10T11:24:03.059Z,8.88
2019-02-10T11:26:33.971Z,7.00
2019-02-10T11:29:05.521Z,7.50
2019-02-10T11:31:41.336Z,5.67
2019-02-10T11:34:17.129Z,6.10
2019-02-10T11:36:48.909Z,7.83
2019-02-10T11:39:31.134Z,7.70
2019-02-10T11:42:04.636Z,32.45
2019-02-10T11:44:35.480Z,6.45
2019-02-10T11:47:05.728Z,8.60
2019-02-10T11:49:41.907Z,9.38
2019-02-10T11:52:12.282Z,6.87
2019-02-10T11:54:42.538Z,5.65
2019-02-10T11:57:12.787Z,8.00
2019-02-10T11:59:43.025Z,9.00
2019-02-10T12:02:13.272Z,8.65
2019-02-10T12:04:43.522Z,9.70
2019-02-10T12:07:13.775Z,10.43
2019-02-10T12:09:51.379Z,8.38
2019-02-10T12:12:15.974Z,18.80
2019-02-10T12:14:46.226Z,26.85
2019-02-10T12:17:16.481Z,27.40
2019-02-10T12:19:46.720Z,14.58
2019-02-10T12:22:16.981Z,7.65
2019-02-10T12:24:47.240Z,9.05
2019-02-10T12:27:17.475Z,7.08
2019-02-10T12:29:47.726Z,12.33
2019-02-10T12:32:17.966Z,7.75
2019-02-10T12:34:48.222Z,8.28
2019-02-10T12:37:18.451Z,6.67
2019-02-10T12:39:48.692Z,9.08
2019-02-10T12:42:18.935Z,15.53
2019-02-10T12:44:49.185Z,7.92
2019-02-10T12:47:20.973Z,15.00
2019-02-10T12:49:51.248Z,23.32
2019-02-10T12:52:21.508Z,19.48
2019-02-10T12:54:51.770Z,16.45
2019-02-10T12:57:22.019Z,16.73
2019-02-10T12:59:52.281Z,11.15
2019-02-10T13:02:22.532Z,20.02
2019-02-10T13:04:52.809Z,21.10
2019-02-10T13:07:23.051Z,17.82
2019-02-10T13:09:53.302Z,22.22
2019-02-10T13:12:23.720Z,10.78
2019-02-10T13:14:53.976Z,33.02
2019-02-10T13:17:24.222Z,58.85
2019-02-10T13:19:54.507Z,39.78
2019-02-10T13:22:24.706Z,21.05
2019-02-10T13:24:54.956Z,12.05
2019-02-10T13:27:25.201Z,25.90
2019-02-10T13:29:55.459Z,15.45
2019-02-10T13:32:25.698Z,8.35
2019-02-10T13:34:55.944Z,9.80
2019-02-10T13:37:26.551Z,11.38
2019-02-10T13:39:56.824Z,11.68
2019-02-10T13:42:27.087Z,10.30
2019-02-10T13:44:57.332Z,34.80
2019-02-10T13:47:29.350Z,42.75
2019-02-10T13:49:59.606Z,38.88
2019-02-10T13:52:30.146Z,9.18
2019-02-10T13:55:00.469Z,16.85
2019-02-10T13:57:30.737Z,16.70
2019-02-10T14:00:00.989Z,15.45
2019-02-10T14:02:31.235Z,14.63
2019-02-10T14:05:01.488Z,11.10
2019-02-10T14:07:32.018Z,14.40
2019-02-10T14:10:02.279Z,19.30
2019-02-10T14:12:32.596Z,24.80
2019-02-10T14:15:02.867Z,27.10
2019-02-10T14:17:33.123Z,17.10
2019-02-10T14:20:03.857Z,19.27
2019-02-10T14:22:34.116Z,21.02
2019-02-10T14:25:05.816Z,26.42
2019-02-10T14:27:36.074Z,18.27
2019-02-10T14:30:09.588Z,18.25
2019-02-10T14:32:42.790Z,19.48
2019-02-10T14:35:15.507Z,17.90
2019-02-10T14:37:46.038Z,16.82
2019-02-10T14:40:17.514Z,17.87
2019-02-10T14:42:48.950Z,15.45
2019-02-10T14:45:20.382Z,9.65
2019-02-10T14:47:56.617Z,18.98
2019-02-10T14:50:26.973Z,20.62
2019-02-10T14:53:01.388Z,23.83
2019-02-10T14:55:38.118Z,16.27
2019-02-10T14:58:12.215Z,31.20
2019-02-10T15:00:45.985Z,33.60
2019-02-10T15:03:18.991Z,29.55
2019-02-10T15:05:54.111Z,28.92
2019-02-10T15:08:27.088Z,29.15
2019-02-10T15:11:00.337Z,19.32
2019-02-10T15:13:31.845Z,25.88
2019-02-10T15:16:02.364Z,18.80
2019-02-10T15:18:37.015Z,11.00
2019-02-10T15:21:07.266Z,16.00
2019-02-10T15:23:39.184Z,14.58
2019-02-10T15:26:10.613Z,26.68
2019-02-10T15:28:40.863Z,34.00
2019-02-10T15:31:14.849Z,19.17
2019-02-10T15:33:55.423Z,11.90
2019-02-10T15:36:33.708Z,16.57
2019-02-10T15:39:09.688Z,21.42
2019-02-10T15:41:52.298Z,17.60
2019-02-10T15:44:22.753Z,14.93
2019-02-10T15:46:54.875Z,21.27
2019-02-10T15:49:27.917Z,15.68
2019-02-10T15:52:00.449Z,20.05
2019-02-10T15:54:38.892Z,18.77
2019-02-10T15:57:09.905Z,19.48
2019-02-10T15:59:43.513Z,18.97
2019-02-10T16:02:14.134Z,15.65
2019-02-10T16:04:45.129Z,14.55
2019-02-10T16:07:15.373Z,22.10
2019-02-10T16:09:50.232Z,20.92
2019-02-10T16:12:23.132Z,19.37
2019-02-10T16:14:56.670Z,19.35
2019-02-10T16:17:27.587Z,25.07
2019-02-10T16:20:10.218Z,19.92
2019-02-10T16:22:46.055Z,20.77
2019-02-10T16:25:31.905Z,19.32
2019-02-10T16:28:03.518Z,18.47
2019-02-10T16:30:42.379Z,18.97
2019-02-10T16:33:23.107Z,20.70
2019-02-10T16:35:57.028Z,19.43
2019-02-10T16:38:30.102Z,19.90
2019-02-10T16:41:06.475Z,21.23
2019-02-10T16:43:36.157Z,19.50
2019-02-10T16:46:07.599Z,21.33
2019-02-10T16:48:37.852Z,21.00
2019-02-10T16:51:09.620Z,21.97
2019-02-10T16:53:42.271Z,22.77
2019-02-10T16:56:12.796Z,20.53
2019-02-10T16:58:43.417Z,19.10
2019-02-10T17:01:13.660Z,15.03
2019-02-10T17:03:43.976Z,21.67
2019-02-10T17:06:14.300Z,16.93
2019-02-10T17:08:44.552Z,17.37
2019-02-10T17:11:14.794Z,18.47
2019-02-10T17:13:47.017Z,15.83
2019-02-10T17:16:17.375Z,14.85
2019-02-10T17:18:47.659Z,19.17
2019-02-10T17:21:17.915Z,15.85
2019-02-10T17:23:53.115Z,17.37
2019-02-10T17:26:23.455Z,17.82
2019-02-10T17:28:55.390Z,16.87
2019-02-10T17:31:27.415Z,15.97
2019-02-10T17:33:58.465Z,19.03
2019-02-10T17:36:30.288Z,17.23
2019-02-10T17:39:02.024Z,17.73
2019-02-10T17:41:35.361Z,20.10
2019-02-10T17:44:07.528Z,19.67
2019-02-10T17:46:37.854Z,19.20
2019-02-10T17:49:09.376Z,17.40
2019-02-10T17:51:39.881Z,27.13
2019-02-10T17:54:10.126Z,27.50
2019-02-10T17:56:40.699Z,20.53
2019-02-10T17:59:16.423Z,21.57
2019-02-10T18:01:50.226Z,23.80
2019-02-10T18:04:22.350Z,26.13
2019-02-10T18:06:55.031Z,21.50
2019-02-10T18:09:25.293Z,24.25
2019-02-10T18:11:55.527Z,23.53
2019-02-10T18:14:39.297Z,22.93
2019-02-10T18:17:17.260Z,23.47
2019-02-10T18:19:55.249Z,21.23
2019-02-10T18:22:29.309Z,22.33
2019-02-10T18:25:21.910Z,26.27
2019-02-10T18:27:58.380Z,24.10
2019-02-10T18:30:31.347Z,23.37
2019-02-10T18:33:16.695Z,19.33
2019-02-10T18:35:55.699Z,27.47
2019-02-10T18:38:37.967Z,22.37
2019-02-10T18:41:27.899Z,21.00
2019-02-10T18:43:59.819Z,25.93
2019-02-10T18:46:34.698Z,26.00
2019-02-10T18:49:22.698Z,22.60
2019-02-10T18:52:09.856Z,22.53
2019-02-10T18:54:56.814Z,28.67
2019-02-10T18:57:31.427Z,30.17
2019-02-10T19:00:15.409Z,24.17
2019-02-10T19:02:47.726Z,26.43
2019-02-10T19:05:35.781Z,24.90
2019-02-10T19:08:09.338Z,24.13
2019-02-10T19:10:53.351Z,20.60
2019-02-10T19:13:37.498Z,28.23
2019-02-10T19:16:26.721Z,79.50
2019-02-10T19:19:01.703Z,37.90
2019-02-10T19:21:38.175Z,23.17
2019-02-10T19:24:25.105Z,58.20
2019-02-10T19:27:06.335Z,77.57
2019-02-10T19:29:39.497Z,44.13
2019-02-10T19:32:23.995Z,28.43
2019-02-10T19:35:02.102Z,25.97
2019-02-10T19:37:39.988Z,25.33
2019-02-10T19:40:31.490Z,24.00
2019-02-10T19:43:14.194Z,29.07
2019-02-10T19:45:48.612Z,34.03
2019-02-10T19:48:36.210Z,30.90
2019-02-10T19:51:12.941Z,25.00
2019-02-10T19:54:04.992Z,26.43
2019-02-10T19:56:52.965Z,33.00
2019-02-10T19:59:29.731Z,42.20
2019-02-10T20:02:04.254Z,28.93
2019-02-10T20:04:44.703Z,31.73
2019-02-10T20:07:20.606Z,41.07
2019-02-10T20:10:04.273Z,27.73
2019-02-10T20:12:37.727Z,62.10
2019-02-10T20:15:11.850Z,53.40
2019-02-10T20:18:02.152Z,32.13
2019-02-10T20:20:36.570Z,23.53
2019-02-10T20:23:20.763Z,25.43
2019-02-10T20:26:11.756Z,20.97
2019-02-10T20:28:52.585Z,25.17
2019-02-10T20:31:24.478Z,25.23
2019-02-10T20:33:59.061Z,23.93
2019-02-10T20:36:37.139Z,15.73
2019-02-10T20:39:12.904Z,24.93
2019-02-10T20:41:58.014Z,24.40
2019-02-10T20:44:31.587Z,19.00
2019-02-10T20:47:17.003Z,21.43
2019-02-10T20:49:59.554Z,23.43
2019-02-10T20:52:36.486Z,21.73
2019-02-10T20:55:16.154Z,18.33
2019-02-10T20:57:53.288Z,22.50
2019-02-10T21:00:38.897Z,22.70
2019-02-10T21:03:11.235Z,23.23
2019-02-10T21:05:54.720Z,22.47
2019-02-10T21:08:26.787Z,23.03
2019-02-10T21:11:00.442Z,21.53
2019-02-10T21:13:51.254Z,27.93
2019-02-10T21:16:40.111Z,22.87
2019-02-10T21:19:20.882Z,19.20
2019-02-10T21:22:07.651Z,24.07
2019-02-10T21:24:49.315Z,20.07
2019-02-10T21:27:26.172Z,20.53
2019-02-10T21:30:10.888Z,24.13
2019-02-10T21:32:49.736Z,23.93
2019-02-10T21:35:29.672Z,19.60
2019-02-10T21:38:07.078Z,17.43
2019-02-10T21:40:45.416Z,17.90
2019-02-10T21:43:25.189Z,23.20
2019-02-10T21:45:58.403Z,23.80
2019-02-10T21:48:33.627Z,25.57
2019-02-10T21:51:04.036Z,64.47
2019-02-10T21:53:37.542Z,36.83
2019-02-10T21:56:07.888Z,18.07
2019-02-10T21:58:39.351Z,21.10
2019-02-10T22:01:11.541Z,22.20
2019-02-10T22:03:45.179Z,18.17
2019-02-10T22:06:16.658Z,17.73
2019-02-10T22:08:47.336Z,19.53
2019-02-10T22:11:20.626Z,17.30
2019-02-10T22:13:50.888Z,18.00
2019-02-10T22:16:22.854Z,20.27
2019-02-10T22:18:53.410Z,18.17
2019-02-10T22:21:23.739Z,18.80
2019-02-10T22:23:53.976Z,16.10
2019-02-10T22:26:24.686Z,19.97
2019-02-10T22:28:54.939Z,18.33
2019-02-10T22:31:25.181Z,18.07
2019-02-10T22:33:55.435Z,15.47
2019-02-10T22:36:25.690Z,14.23
2019-02-10T22:38:55.954Z,14.13
2019-02-10T22:41:26.191Z,12.43
2019-02-10T22:43:59.148Z,11.97
2019-02-10T22:46:29.391Z,11.50
2019-02-10T22:48:59.661Z,13.07
2019-02-10T22:51:29.894Z,16.30
2019-02-10T22:54:00.159Z,14.70
2019-02-10T22:56:30.396Z,13.00
2019-02-10T22:59:00.659Z,13.70
2019-02-10T23:01:30.976Z,13.73
2019-02-10T23:04:01.224Z,11.53
2019-02-10T23:06:31.467Z,15.93
2019-02-10T23:09:01.724Z,12.00
2019-02-10T23:11:33.573Z,13.37
2019-02-10T23:14:03.855Z,14.07
2019-02-10T23:16:34.067Z,15.33
2019-02-10T23:19:04.327Z,15.83
2019-02-10T23:21:34.563Z,14.73
2019-02-10T23:24:04.818Z,12.80
2019-02-10T23:26:35.062Z,14.87
2019-02-10T23:29:05.332Z,12.70
2019-02-10T23:31:35.584Z,13.10
2019-02-10T23:34:05.845Z,11.87
2019-02-10T23:36:36.085Z,13.73
2019-02-10T23:39:06.352Z,9.87
2019-02-10T23:41:37.570Z,10.73
2019-02-10T23:44:07.828Z,10.40
2019-02-10T23:46:38.072Z,9.60
2019-02-10T23:49:08.325Z,10.03
2019-02-10T23:51:38.562Z,9.27
2019-02-10T23:54:09.288Z,10.67
2019-02-10T23:56:46.945Z,10.60
2019-02-10T23:59:13.248Z,8.67
